Time;durP1;ratioP1;P1;durP2;ratioP2;P2;SDS_P1;SDS_P2;PMS_P1;PMS_P2;Temp;Humidity;BMP_temperature;BMP_pressure;BME280_temperature;BME280_humidity;BME280_pressure;Samples;Min_cycle;Max_cycle;Signal;HPM_P1;HPM_P2
2023/03/09 00:03:29;;;;;;;25.60;14.82;;;0.50;99.90;;;;;;12357075;28;20475;-81
2023/03/09 00:09:31;;;;;;;25.75;14.80;;;0.50;99.90;;;;;;12383219;28;20050;-80
2023/03/09 00:15:34;;;;;;;26.85;15.45;;;0.50;99.90;;;;;;12349540;28;20141;-80
2023/03/09 00:21:40;;;;;;;30.58;16.25;;;0.60;99.90;;;;;;12363856;28;20078;-80
2023/03/09 00:27:46;;;;;;;27.08;15.40;;;0.50;99.90;;;;;;12376886;28;20487;-80
2023/03/09 00:33:48;;;;;;;28.13;15.15;;;0.50;99.90;;;;;;12380232;28;20078;-81
2023/03/09 00:39:50;;;;;;;29.90;15.73;;;0.50;99.90;;;;;;12357211;28;20622;-80
2023/03/09 00:45:52;;;;;;;28.80;16.17;;;0.50;99.90;;;;;;12366985;28;20572;-81
2023/03/09 00:51:54;;;;;;;27.67;15.05;;;0.50;99.90;;;;;;12374368;28;20479;-80
2023/03/09 00:57:56;;;;;;;29.00;15.82;;;0.50;99.90;;;;;;12371068;28;20078;-81
2023/03/09 01:03:58;;;;;;;29.00;15.70;;;0.50;99.90;;;;;;12364481;28;20042;-81
2023/03/09 01:10:00;;;;;;;29.58;15.82;;;0.50;99.90;;;;;;12364841;28;20125;-80
2023/03/09 01:16:02;;;;;;;29.35;15.07;;;0.50;99.90;;;;;;12376269;28;20077;-80
2023/03/09 01:22:04;;;;;;;29.42;15.48;;;0.50;99.90;;;;;;12353369;28;20522;-80
2023/03/09 01:28:06;;;;;;;30.70;15.88;;;0.50;99.90;;;;;;12385756;28;20078;-80
2023/03/09 01:34:13;;;;;;;27.48;15.00;;;0.50;99.90;;;;;;12358149;28;20120;-81
2023/03/09 01:40:21;;;;;;;24.17;13.85;;;0.50;99.90;;;;;;12377740;28;20054;-81
2023/03/09 01:46:55;;;;;;;24.85;13.60;;;0.50;99.90;;;;;;12403543;28;20078;-80
2023/03/09 01:53:04;;;;;;;25.67;14.65;;;0.50;99.90;;;;;;12392345;28;20053;-81
2023/03/09 01:59:06;;;;;;;24.67;13.82;;;0.50;99.90;;;;;;12366940;28;20030;-81
2023/03/09 02:05:13;;;;;;;24.42;14.40;;;0.50;99.90;;;;;;12392169;28;20050;-82
2023/03/09 02:11:14;;;;;;;25.27;14.65;;;0.40;99.90;;;;;;12358657;28;20058;-82
2023/03/09 02:17:17;;;;;;;22.33;13.73;;;0.40;99.90;;;;;;12382533;28;20046;-83
2023/03/09 02:23:26;;;;;;;25.00;14.35;;;0.30;99.90;;;;;;12386674;28;20053;-83
2023/03/09 02:29:30;;;;;;;22.90;13.35;;;0.30;99.90;;;;;;12378351;28;20053;-83
2023/03/09 02:35:32;;;;;;;27.20;14.85;;;0.30;99.90;;;;;;12377135;28;20097;-83
2023/03/09 02:41:34;;;;;;;23.83;14.13;;;0.30;99.90;;;;;;12391016;28;20418;-83
2023/03/09 02:47:38;;;;;;;23.48;14.27;;;0.40;99.90;;;;;;12413137;28;20055;-84
2023/03/09 02:53:42;;;;;;;22.73;13.38;;;0.40;99.90;;;;;;12433050;28;20047;-83
2023/03/09 02:59:44;;;;;;;23.52;13.13;;;0.40;99.90;;;;;;12416821;28;20101;-83
2023/03/09 03:05:47;;;;;;;28.05;12.77;;;0.40;99.90;;;;;;12364213;28;20125;-83
2023/03/09 03:11:50;;;;;;;25.25;13.77;;;0.40;99.90;;;;;;12386774;28;20514;-83
2023/03/09 03:17:52;;;;;;;24.23;13.98;;;0.40;99.90;;;;;;12389725;28;20127;-83
2023/03/09 03:23:54;;;;;;;23.73;13.02;;;0.40;99.90;;;;;;12383767;28;20578;-83
2023/03/09 03:29:56;;;;;;;22.08;12.50;;;0.30;99.90;;;;;;12378895;28;20078;-83
2023/03/09 03:35:58;;;;;;;23.27;13.23;;;0.30;99.90;;;;;;12396006;28;20042;-83
2023/03/09 03:42:00;;;;;;;23.48;13.18;;;0.30;99.90;;;;;;12376312;28;20427;-84
2023/03/09 03:48:02;;;;;;;21.83;12.23;;;0.30;99.90;;;;;;12365555;28;20193;-84
2023/03/09 03:54:04;;;;;;;21.40;10.90;;;0.30;99.90;;;;;;12388176;28;20770;-83
2023/03/09 04:00:09;;;;;;;21.13;11.55;;;0.30;99.90;;;;;;12368366;28;20042;-84
2023/03/09 04:06:12;;;;;;;20.38;11.23;;;0.40;99.90;;;;;;12352649;28;20045;-84
2023/03/09 04:12:15;;;;;;;18.85;10.27;;;0.30;99.90;;;;;;12358476;28;20234;-83
2023/03/09 04:18:16;;;;;;;22.45;11.80;;;0.30;99.90;;;;;;12382943;28;20046;-84
2023/03/09 04:24:18;;;;;;;21.17;11.43;;;0.30;99.90;;;;;;12373828;28;20487;-83
2023/03/09 04:30:26;;;;;;;18.85;10.52;;;0.30;99.90;;;;;;12375724;28;20051;-84
2023/03/09 04:36:30;;;;;;;21.60;11.75;;;0.30;99.90;;;;;;12358706;28;20060;-84
2023/03/09 04:42:32;;;;;;;19.20;11.40;;;0.30;99.90;;;;;;12378185;28;20137;-84
2023/03/09 04:48:34;;;;;;;19.80;11.45;;;0.20;99.90;;;;;;12375547;28;20061;-83
2023/03/09 04:54:36;;;;;;;20.15;11.45;;;0.30;99.90;;;;;;12373136;28;20066;-83
2023/03/09 05:00:38;;;;;;;20.20;11.85;;;0.20;99.90;;;;;;12390360;28;20054;-83
2023/03/09 05:06:40;;;;;;;20.83;11.57;;;0.30;99.90;;;;;;12399407;28;20069;-83
2023/03/09 05:12:42;;;;;;;19.75;11.48;;;0.30;99.90;;;;;;12384429;28;20483;-84
2023/03/09 05:18:44;;;;;;;20.90;11.48;;;0.30;99.90;;;;;;12357951;28;20172;-83
2023/03/09 05:24:46;;;;;;;19.20;10.77;;;0.20;99.90;;;;;;12393201;28;20049;-84
2023/03/09 05:30:49;;;;;;;21.25;11.95;;;0.20;99.90;;;;;;12377441;28;20050;-83
2023/03/09 05:36:51;;;;;;;20.63;11.70;;;0.20;99.90;;;;;;12350288;28;20104;-83
2023/03/09 05:42:53;;;;;;;18.85;11.27;;;0.20;99.90;;;;;;12380762;28;20093;-83
2023/03/09 05:48:55;;;;;;;21.23;11.75;;;0.10;99.90;;;;;;12391993;28;20089;-84
2023/03/09 05:54:57;;;;;;;20.50;12.02;;;0.20;99.90;;;;;;12374820;28;20145;-83
2023/03/09 06:01:01;;;;;;;24.77;13.00;;;0.10;99.90;;;;;;12364171;28;20046;-83
2023/03/09 06:07:03;;;;;;;22.67;13.00;;;0.20;99.90;;;;;;12350822;28;20093;-83
2023/03/09 06:13:05;;;;;;;22.75;13.25;;;0.20;99.90;;;;;;12354046;28;20103;-83
2023/03/09 06:19:08;;;;;;;23.52;12.80;;;0.20;99.90;;;;;;12387777;28;20146;-83
2023/03/09 06:25:11;;;;;;;24.13;12.43;;;0.20;99.90;;;;;;12395248;28;20046;-83
2023/03/09 06:31:14;;;;;;;26.20;13.10;;;0.20;99.90;;;;;;12371180;28;20111;-83
2023/03/09 06:37:17;;;;;;;24.55;12.88;;;0.30;99.90;;;;;;12374675;28;20492;-83
2023/03/09 06:43:19;;;;;;;23.98;12.80;;;0.30;99.90;;;;;;12369975;28;20414;-83
2023/03/09 06:49:20;;;;;;;26.40;13.60;;;0.40;99.90;;;;;;12353000;28;20066;-83
2023/03/09 06:55:22;;;;;;;27.38;14.57;;;0.30;99.90;;;;;;12361871;28;20038;-83
2023/03/09 07:01:24;;;;;;;27.60;14.57;;;0.30;99.90;;;;;;12355715;28;20042;-84
2023/03/09 07:07:26;;;;;;;29.45;14.00;;;0.30;99.90;;;;;;12387510;28;20054;-83
2023/03/09 07:13:32;;;;;;;28.58;14.60;;;0.40;99.90;;;;;;12377926;28;20046;-83
2023/03/09 07:19:34;;;;;;;29.13;14.73;;;0.50;99.90;;;;;;12395022;28;20205;-84
2023/03/09 07:25:37;;;;;;;26.90;13.82;;;0.50;99.90;;;;;;12357335;28;20084;-84
2023/03/09 07:31:40;;;;;;;27.90;15.05;;;0.60;99.90;;;;;;12363102;28;20130;-84
2023/03/09 07:37:42;;;;;;;30.60;16.20;;;0.70;99.90;;;;;;12369513;28;20047;-83
2023/03/09 07:43:46;;;;;;;30.37;15.27;;;0.70;99.90;;;;;;12355832;28;20514;-84
2023/03/09 07:49:49;;;;;;;29.23;14.90;;;0.70;99.90;;;;;;12379110;28;20062;-84
2023/03/09 07:55:56;;;;;;;28.17;15.43;;;0.60;99.90;;;;;;12353842;28;20061;-84
2023/03/09 08:01:58;;;;;;;27.95;14.95;;;0.70;99.90;;;;;;12369183;28;20046;-83
2023/03/09 08:08:00;;;;;;;28.58;14.35;;;0.70;99.90;;;;;;12362887;28;20140;-83
2023/03/09 08:14:02;;;;;;;28.35;16.02;;;0.90;99.90;;;;;;12350595;28;20066;-83
2023/03/09 08:20:08;;;;;;;28.15;15.40;;;0.90;99.90;;;;;;12372306;28;20132;-83
2023/03/09 08:26:11;;;;;;;27.95;14.88;;;0.80;99.90;;;;;;12345760;28;20070;-83
2023/03/09 08:32:16;;;;;;;28.40;15.43;;;0.90;99.90;;;;;;12375461;28;20050;-84
2023/03/09 08:38:18;;;;;;;31.23;15.63;;;1.00;99.90;;;;;;12382968;28;20471;-83
2023/03/09 08:44:20;;;;;;;26.00;14.77;;;0.90;99.90;;;;;;12389387;28;20096;-83
2023/03/09 08:50:22;;;;;;;27.48;15.00;;;1.10;99.90;;;;;;12375022;28;20043;-83
2023/03/09 08:56:24;;;;;;;28.38;15.57;;;1.10;99.90;;;;;;12369861;28;20058;-83
2023/03/09 09:02:26;;;;;;;30.23;15.82;;;1.40;99.90;;;;;;12354070;28;20090;-83
2023/03/09 09:08:28;;;;;;;29.83;16.60;;;1.40;99.90;;;;;;12390126;28;20074;-83
2023/03/09 09:14:31;;;;;;;27.90;15.82;;;1.40;99.90;;;;;;12364287;28;20456;-85
2023/03/09 09:20:35;;;;;;;24.17;13.98;;;1.60;99.90;;;;;;12377228;28;20110;-85
2023/03/09 09:26:37;;;;;;;26.08;14.35;;;1.80;99.90;;;;;;12399546;28;20093;-84
2023/03/09 09:32:40;;;;;;;20.58;12.38;;;1.80;99.90;;;;;;12372386;28;20062;-83
2023/03/09 09:38:42;;;;;;;20.00;11.20;;;2.40;99.90;;;;;;12329816;28;20085;-83
2023/03/09 09:44:48;;;;;;;19.20;11.27;;;2.00;99.90;;;;;;12349855;28;20535;-82
2023/03/09 09:51:24;;;;;;;17.92;9.90;;;2.00;99.90;;;;;;12382858;28;20570;-82
2023/03/09 09:57:41;;;;;;;17.95;10.60;;;2.10;99.90;;;;;;12359238;28;20133;-82
2023/03/09 10:03:48;;;;;;;13.43;8.15;;;2.10;99.90;;;;;;12376130;28;20053;-82
2023/03/09 10:10:01;;;;;;;18.83;11.20;;;2.20;99.90;;;;;;12383937;28;20106;-82
2023/03/09 10:16:09;;;;;;;17.25;10.50;;;2.30;99.90;;;;;;12356370;28;20108;-82
2023/03/09 10:22:21;;;;;;;17.00;10.35;;;2.60;99.90;;;;;;12395024;28;20168;-81
2023/03/09 10:28:28;;;;;;;16.40;10.05;;;2.50;99.90;;;;;;12344650;28;20058;-81
2023/03/09 10:34:38;;;;;;;16.20;9.85;;;2.30;99.90;;;;;;12367044;28;20046;-81
2023/03/09 10:40:47;;;;;;;16.85;9.60;;;2.10;99.90;;;;;;12382833;28;20281;-81
2023/03/09 10:46:58;;;;;;;14.02;8.45;;;2.40;99.90;;;;;;12370252;28;20086;-81
2023/03/09 10:53:51;;;;;;;17.90;10.82;;;2.80;99.90;;;;;;12372487;28;20418;-81
2023/03/09 11:00:05;;;;;;;16.02;9.73;;;2.90;99.90;;;;;;12367397;28;20412;-81
2023/03/09 11:06:19;;;;;;;17.00;9.60;;;2.70;99.90;;;;;;12371050;28;20093;-81
2023/03/09 11:12:27;;;;;;;17.70;9.93;;;2.90;99.90;;;;;;12381520;28;20108;-80
2023/03/09 11:18:30;;;;;;;17.80;10.35;;;2.80;99.90;;;;;;12355702;28;20093;-80
2023/03/09 11:24:52;;;;;;;15.10;8.63;;;2.90;99.90;;;;;;12392123;28;20047;-81
2023/03/09 11:30:56;;;;;;;17.90;10.23;;;3.20;99.90;;;;;;12350248;28;20054;-80
2023/03/09 11:37:07;;;;;;;18.05;10.18;;;3.00;99.90;;;;;;12354559;28;20053;-80
2023/03/09 11:43:28;;;;;;;18.20;10.40;;;2.90;99.90;;;;;;12362988;28;20047;-81
2023/03/09 11:49:31;;;;;;;16.95;10.18;;;2.90;99.90;;;;;;12350011;28;20129;-80
2023/03/09 11:55:41;;;;;;;15.80;8.68;;;2.90;99.90;;;;;;12369390;28;20058;-80
2023/03/09 12:01:49;;;;;;;18.67;10.68;;;3.20;99.90;;;;;;12349397;28;20515;-80
2023/03/09 12:08:01;;;;;;;16.63;9.73;;;2.80;99.90;;;;;;12373418;28;20121;-80
2023/03/09 12:14:26;;;;;;;15.35;8.68;;;2.90;99.90;;;;;;12363160;28;20039;-79
2023/03/09 12:20:37;;;;;;;20.85;12.77;;;3.00;99.90;;;;;;12380195;28;20068;-80
2023/03/09 12:26:41;;;;;;;21.73;12.40;;;3.10;99.90;;;;;;12370937;28;20062;-79
2023/03/09 12:32:43;;;;;;;23.07;12.97;;;3.00;99.90;;;;;;12361377;28;20463;-80
2023/03/09 12:38:45;;;;;;;21.23;12.77;;;3.00;99.90;;;;;;12350860;28;20081;-80
2023/03/09 12:44:47;;;;;;;26.90;13.57;;;3.10;99.90;;;;;;12318204;28;20043;-79
2023/03/09 12:51:05;;;;;;;21.33;12.32;;;2.90;99.90;;;;;;12365935;28;20169;-79
2023/03/09 12:57:17;;;;;;;26.58;14.95;;;2.90;99.90;;;;;;12379223;28;20564;-79
2023/03/09 13:03:26;;;;;;;20.23;12.32;;;2.80;99.90;;;;;;12380958;28;20902;-79
2023/03/09 13:09:40;;;;;;;24.38;14.38;;;2.80;99.90;;;;;;12361350;28;20050;-79
2023/03/09 13:15:42;;;;;;;22.05;12.50;;;2.80;99.90;;;;;;12351041;28;20105;-80
2023/03/09 13:21:53;;;;;;;23.52;13.70;;;2.90;99.90;;;;;;12370602;28;20054;-80
2023/03/09 13:28:03;;;;;;;16.92;10.15;;;2.70;99.90;;;;;;12386042;28;20055;-80
2023/03/09 13:34:15;;;;;;;22.60;13.50;;;2.90;99.90;;;;;;12378318;28;20133;-80
2023/03/09 13:40:25;;;;;;;24.17;14.35;;;2.70;99.90;;;;;;12364737;28;20077;-80
2023/03/09 13:46:32;;;;;;;20.73;12.45;;;2.80;99.90;;;;;;12359298;28;20062;-80
2023/03/09 13:52:34;;;;;;;24.65;14.40;;;2.80;99.90;;;;;;12363938;28;20051;-79
2023/03/09 13:58:43;;;;;;;18.67;11.18;;;2.60;99.90;;;;;;12384367;28;20069;-80
2023/03/09 14:05:18;;;;;;;19.00;10.77;;;2.90;99.90;;;;;;12369908;28;20133;-79
2023/03/09 14:11:40;;;;;;;27.73;15.25;;;2.90;99.90;;;;;;12382176;28;20057;-80
2023/03/09 14:17:42;;;;;;;24.90;14.43;;;2.80;99.90;;;;;;12376454;28;20052;-79
2023/03/09 14:23:44;;;;;;;25.30;15.02;;;2.90;99.90;;;;;;12374654;28;20486;-80
2023/03/09 14:29:46;;;;;;;24.15;14.02;;;2.50;99.90;;;;;;12387603;28;20384;-80
2023/03/09 14:35:49;;;;;;;24.25;14.80;;;2.30;99.90;;;;;;12394439;28;20049;-80
2023/03/09 14:42:08;;;;;;;24.67;14.35;;;2.50;99.90;;;;;;12396359;28;20054;-81
2023/03/09 14:48:10;;;;;;;27.27;15.20;;;2.20;99.90;;;;;;12372980;28;20561;-80
2023/03/09 14:54:18;;;;;;;25.40;14.68;;;2.10;99.90;;;;;;12356424;28;20038;-80
2023/03/09 15:00:24;;;;;;;28.30;15.82;;;2.20;99.90;;;;;;12327053;28;20058;-80
2023/03/09 15:06:27;;;;;;;29.45;15.07;;;2.20;99.90;;;;;;12356358;28;20702;-80
2023/03/09 15:12:29;;;;;;;27.60;15.88;;;2.10;99.90;;;;;;12371886;28;20058;-80
2023/03/09 15:18:31;;;;;;;26.02;15.75;;;2.00;99.90;;;;;;12335950;28;20099;-81
2023/03/09 15:24:33;;;;;;;28.48;16.40;;;1.80;99.90;;;;;;12332854;28;20125;-80
2023/03/09 15:30:36;;;;;;;29.02;16.58;;;1.70;99.90;;;;;;12334239;28;20058;-81
2023/03/09 15:36:38;;;;;;;26.67;15.23;;;1.50;99.90;;;;;;12332985;28;20051;-81
2023/03/09 15:42:42;;;;;;;30.23;17.23;;;1.50;99.90;;;;;;12346723;28;20070;-81
2023/03/09 15:48:44;;;;;;;29.42;17.15;;;1.40;99.90;;;;;;12341273;28;20059;-81
2023/03/09 15:54:46;;;;;;;30.90;17.13;;;1.50;99.90;;;;;;12331286;28;20201;-82
2023/03/09 16:00:50;;;;;;;30.38;16.52;;;1.40;99.90;;;;;;12338109;28;20500;-81
2023/03/09 16:06:52;;;;;;;35.00;18.52;;;1.30;99.90;;;;;;12326964;28;20054;-81
2023/03/09 16:12:54;;;;;;;28.45;15.80;;;1.30;99.90;;;;;;12354693;28;20121;-81
2023/03/09 16:18:57;;;;;;;79.38;18.17;;;1.40;99.90;;;;;;12339954;28;20102;-81
2023/03/09 16:24:59;;;;;;;40.85;16.98;;;1.40;99.90;;;;;;12329394;28;20039;-81
2023/03/09 16:31:01;;;;;;;31.63;16.45;;;1.10;99.90;;;;;;12353841;28;20096;-81
2023/03/09 16:37:05;;;;;;;30.13;16.00;;;1.10;99.90;;;;;;12350188;28;20078;-82
2023/03/09 16:43:07;;;;;;;28.80;15.57;;;1.10;99.90;;;;;;12346601;28;20051;-82
2023/03/09 16:49:10;;;;;;;23.42;12.95;;;1.20;99.90;;;;;;12356662;28;20046;-82
2023/03/09 16:55:16;;;;;;;27.08;15.48;;;1.30;99.90;;;;;;12393629;28;20051;-83
2023/03/09 17:01:20;;;;;;;76.25;17.50;;;1.30;99.90;;;;;;12419138;28;20074;-85
2023/03/09 17:07:24;;;;;;;40.17;16.83;;;1.20;99.90;;;;;;12427626;23;20443;-35
2023/03/09 17:13:26;;;;;;;290.73;22.48;;;1.00;99.90;;;;;;12435219;28;20046;-36
2023/03/09 17:19:29;;;;;;;253.60;23.40;;;1.00;99.90;;;;;;12441094;28;20053;-36
2023/03/09 17:25:31;;;;;;;36.17;18.10;;;1.00;99.90;;;;;;12435035;28;20057;-36
2023/03/09 17:31:34;;;;;;;32.42;16.90;;;0.90;99.90;;;;;;12433902;28;20129;-35
2023/03/09 17:37:39;;;;;;;45.35;18.35;;;0.80;99.90;;;;;;12430488;28;20069;-36
2023/03/09 17:43:41;;;;;;;29.75;15.30;;;0.80;99.90;;;;;;12420812;28;20039;-35
2023/03/09 17:49:44;;;;;;;24.65;13.65;;;0.70;99.90;;;;;;12439343;28;20069;-35
2023/03/09 17:55:55;;;;;;;17.30;9.88;;;0.80;99.90;;;;;;12428788;28;20168;-35
2023/03/09 18:02:02;;;;;;;15.90;9.45;;;0.80;99.90;;;;;;12443276;28;20065;-35
2023/03/09 18:08:06;;;;;;;14.38;8.48;;;0.80;99.90;;;;;;12442580;28;20062;-35
2023/03/09 18:14:12;;;;;;;11.80;7.28;;;0.80;99.90;;;;;;12426413;28;20133;-35
2023/03/09 18:20:14;;;;;;;12.80;7.18;;;0.90;99.90;;;;;;12426651;28;20068;-35
2023/03/09 18:26:30;;;;;;;12.63;7.57;;;0.90;99.90;;;;;;12442499;28;20081;-35
2023/03/09 18:32:48;;;;;;;15.93;8.88;;;0.90;99.90;;;;;;12442062;28;20054;-35
2023/03/09 18:38:51;;;;;;;17.92;9.82;;;0.80;99.90;;;;;;12425496;28;20410;-35
2023/03/09 18:44:54;;;;;;;14.68;8.70;;;0.80;99.90;;;;;;12440785;28;20057;-36
2023/03/09 18:50:57;;;;;;;13.70;7.93;;;0.80;99.90;;;;;;12439187;28;20042;-36
2023/03/09 18:56:59;;;;;;;12.55;7.07;;;0.80;99.90;;;;;;12436187;28;20049;-36
2023/03/09 19:03:03;;;;;;;12.65;7.78;;;0.80;99.90;;;;;;12442907;28;20093;-36
2023/03/09 19:09:06;;;;;;;16.13;8.43;;;0.80;99.90;;;;;;12472401;23;20139;-86
2023/03/09 19:15:09;;;;;;;15.25;7.03;;;0.80;99.90;;;;;;12486055;28;20065;-85
2023/03/09 19:21:14;;;;;;;12.38;6.97;;;0.80;99.90;;;;;;12478577;28;20060;-86
2023/03/09 19:27:16;;;;;;;;;;;0.90;99.90;;;;;;12504224;28;20025;-86
2023/03/09 19:33:18;;;;;;;10.95;6.18;;;0.90;99.90;;;;;;12472624;28;19925;-86
2023/03/09 19:39:22;;;;;;;13.93;7.55;;;0.90;99.90;;;;;;12448533;28;20049;-86
2023/03/09 19:45:23;;;;;;;13.68;7.75;;;0.90;99.90;;;;;;12410546;28;20052;-86
2023/03/09 19:51:32;;;;;;;14.73;7.53;;;0.90;99.90;;;;;;12439819;28;20046;-86
2023/03/09 19:57:34;;;;;;;19.08;8.60;;;0.90;99.90;;;;;;12436228;28;20038;-85
2023/03/09 20:03:36;;;;;;;19.63;9.98;;;0.90;99.90;;;;;;12434439;28;20049;-84
2023/03/09 20:09:38;;;;;;;16.83;8.63;;;0.90;99.90;;;;;;12435745;28;20050;-85
2023/03/09 20:15:40;;;;;;;45.67;10.73;;;0.80;99.90;;;;;;12420880;28;20092;-83
2023/03/09 20:21:42;;;;;;;108.80;11.60;;;0.80;99.90;;;;;;12423393;28;20046;-85
2023/03/09 20:27:44;;;;;;;73.75;10.85;;;0.80;99.90;;;;;;12406539;28;20076;-84
2023/03/09 20:33:47;;;;;;;57.88;10.88;;;0.90;99.90;;;;;;12420063;28;20054;-84
2023/03/09 20:39:50;;;;;;;19.75;9.02;;;0.80;99.90;;;;;;12421989;28;20494;-84
2023/03/09 20:45:57;;;;;;;16.50;8.95;;;0.80;99.90;;;;;;12428308;28;20041;-84
2023/03/09 20:51:59;;;;;;;15.70;8.15;;;0.90;99.90;;;;;;12414974;28;20391;-83
2023/03/09 20:58:01;;;;;;;13.88;7.50;;;0.90;99.90;;;;;;12424268;28;20053;-83
2023/03/09 21:04:03;;;;;;;14.93;8.35;;;0.90;99.90;;;;;;12431812;28;20092;-83
2023/03/09 21:10:06;;;;;;;14.27;8.48;;;0.90;99.90;;;;;;12427545;28;20061;-82
2023/03/09 21:16:11;;;;;;;13.30;7.40;;;1.00;99.90;;;;;;12426016;28;20054;-82
2023/03/09 21:22:13;;;;;;;12.48;6.97;;;1.00;99.90;;;;;;12430229;28;20395;-82
2023/03/09 21:28:15;;;;;;;11.00;6.75;;;1.00;99.90;;;;;;12422365;28;20176;-82
2023/03/09 21:34:17;;;;;;;13.52;7.32;;;1.00;99.90;;;;;;12420735;28;20038;-81
2023/03/09 21:40:20;;;;;;;13.02;7.38;;;1.10;99.90;;;;;;12422100;28;20050;-82
2023/03/09 21:46:23;;;;;;;11.80;6.90;;;1.10;99.90;;;;;;12425054;28;20391;-82
2023/03/09 21:52:25;;;;;;;11.25;6.93;;;1.10;99.90;;;;;;12433579;28;20119;-81
2023/03/09 21:58:29;;;;;;;11.18;6.65;;;1.10;99.90;;;;;;12433078;28;20469;-81
2023/03/09 22:04:32;;;;;;;11.43;7.50;;;1.10;99.90;;;;;;12429660;28;20046;-81
2023/03/09 22:10:34;;;;;;;13.15;8.27;;;1.10;99.90;;;;;;12457033;28;20042;-81
2023/03/09 22:16:36;;;;;;;13.18;7.40;;;1.10;99.90;;;;;;12430460;28;20042;-82
2023/03/09 22:22:40;;;;;;;119.45;13.63;;;1.10;99.90;;;;;;12473319;28;20070;-82
2023/03/09 22:28:43;;;;;;;213.90;17.60;;;1.10;99.90;;;;;;12470696;28;20069;-81
2023/03/09 22:34:49;;;;;;;52.15;11.27;;;1.00;99.90;;;;;;12427453;28;20177;-82
2023/03/09 22:40:51;;;;;;;93.85;13.45;;;1.10;99.90;;;;;;12426888;28;20099;-81
2023/03/09 22:46:53;;;;;;;18.98;9.70;;;0.90;99.90;;;;;;12421412;28;20050;-81
2023/03/09 22:52:55;;;;;;;19.73;10.77;;;1.00;99.90;;;;;;12420438;28;20129;-82
2023/03/09 22:58:57;;;;;;;36.47;10.05;;;1.00;99.90;;;;;;12440710;28;20506;-81
2023/03/09 23:04:59;;;;;;;46.10;10.35;;;0.90;99.90;;;;;;12440667;28;20129;-82
2023/03/09 23:11:01;;;;;;;76.57;9.75;;;0.90;99.90;;;;;;12426002;28;20538;-81
2023/03/09 23:17:03;;;;;;;14.38;7.75;;;0.90;99.90;;;;;;12422574;28;20050;-80
2023/03/09 23:23:05;;;;;;;19.00;7.63;;;0.90;99.90;;;;;;12448495;28;20136;-80
2023/03/09 23:29:07;;;;;;;26.25;7.68;;;0.90;99.90;;;;;;12432248;28;20074;-80
2023/03/09 23:35:11;;;;;;;32.78;7.47;;;0.90;99.90;;;;;;12443882;28;20516;-81
2023/03/09 23:41:14;;;;;;;19.58;6.68;;;0.90;99.90;;;;;;12417256;28;20053;-81
2023/03/09 23:47:16;;;;;;;22.20;7.93;;;0.90;99.90;;;;;;12434538;28;20084;-81
2023/03/09 23:53:19;;;;;;;17.45;7.63;;;0.90;99.90;;;;;;12428495;28;20088;-81
2023/03/09 23:59:22;;;;;;;13.93;7.55;;;0.90;99.90;;;;;;12424724;28;20057;-81
